createdAt,value
2023-02-11T00:00:17.872Z,104.13
2023-02-11T00:00:49.947Z,103.53
2023-02-11T00:01:29.431Z,103.70
2023-02-11T00:02:01.350Z,106.57
2023-02-11T00:02:33.591Z,103.57
2023-02-11T00:03:05.528Z,105.37
2023-02-11T00:03:37.537Z,114.07
2023-02-11T00:04:09.377Z,105.03
2023-02-11T00:04:41.293Z,106.17
2023-02-11T00:05:13.267Z,106.10
2023-02-11T00:05:45.105Z,105.97
2023-02-11T00:06:16.989Z,108.90
2023-02-11T00:06:48.835Z,115.17
2023-02-11T00:07:20.668Z,114.10
2023-02-11T00:07:52.448Z,114.20
2023-02-11T00:08:24.260Z,117.03
2023-02-11T00:08:56.247Z,120.40
2023-02-11T00:09:30.317Z,120.17
2023-02-11T00:10:04.365Z,123.10
2023-02-11T00:10:36.201Z,114.83
2023-02-11T00:11:08.145Z,106.43
2023-02-11T00:11:39.960Z,105.57
2023-02-11T00:12:11.769Z,111.70
2023-02-11T00:12:43.609Z,114.50
2023-02-11T00:13:15.407Z,111.97
2023-02-11T00:13:47.285Z,110.17
2023-02-11T00:14:19.084Z,106.37
2023-02-11T00:14:50.931Z,106.67
2023-02-11T00:15:22.905Z,106.30
2023-02-11T00:15:54.905Z,106.77
2023-02-11T00:16:27.025Z,110.70
2023-02-11T00:16:58.872Z,110.23
2023-02-11T00:17:30.697Z,109.80
2023-02-11T00:18:02.584Z,107.53
2023-02-11T00:18:34.445Z,116.73
2023-02-11T00:19:06.778Z,117.23
2023-02-11T00:19:38.575Z,115.30
2023-02-11T00:20:10.665Z,115.13
2023-02-11T00:20:42.637Z,121.33
2023-02-11T00:21:19.122Z,120.73
2023-02-11T00:21:50.908Z,125.60
2023-02-11T00:22:22.810Z,129.53
2023-02-11T00:22:54.631Z,132.07
2023-02-11T00:23:26.420Z,132.37
2023-02-11T00:23:59.882Z,137.03
2023-02-11T00:24:31.907Z,135.83
2023-02-11T00:25:03.804Z,131.10
2023-02-11T00:25:43.282Z,121.20
2023-02-11T00:26:25.780Z,119.73
2023-02-11T00:26:57.710Z,113.20
2023-02-11T00:27:29.507Z,116.17
2023-02-11T00:28:01.365Z,117.77
2023-02-11T00:28:33.240Z,124.03
2023-02-11T00:29:05.606Z,120.83
2023-02-11T00:29:38.204Z,116.77
2023-02-11T00:30:11.087Z,113.73
2023-02-11T00:30:43.032Z,111.73
2023-02-11T00:31:15.320Z,106.77
2023-02-11T00:31:47.378Z,101.80
2023-02-11T00:32:19.309Z,105.47
2023-02-11T00:32:51.099Z,105.83
2023-02-11T00:33:22.974Z,103.37
2023-02-11T00:33:54.892Z,102.27
2023-02-11T00:34:26.750Z,101.00
2023-02-11T00:34:58.697Z,101.77
2023-02-11T00:35:30.475Z,103.10
2023-02-11T00:36:13.826Z,101.00
2023-02-11T00:36:45.665Z,102.77
2023-02-11T00:37:17.458Z,104.70
2023-02-11T00:37:49.301Z,107.10
2023-02-11T00:38:21.082Z,107.17
2023-02-11T00:38:53.824Z,108.57
2023-02-11T00:39:25.599Z,114.67
2023-02-11T00:39:57.354Z,113.60
2023-02-11T00:40:29.129Z,112.97
2023-02-11T00:41:00.995Z,111.67
2023-02-11T00:41:32.870Z,113.10
2023-02-11T00:42:04.836Z,112.40
2023-02-11T00:42:37.460Z,111.00
2023-02-11T00:43:09.330Z,108.77
2023-02-11T00:43:41.929Z,109.50
2023-02-11T00:44:13.753Z,109.40
2023-02-11T00:44:45.663Z,111.00
2023-02-11T00:45:17.657Z,108.33
2023-02-11T00:45:49.805Z,110.13
2023-02-11T00:46:21.979Z,111.77
2023-02-11T00:46:53.907Z,108.33
2023-02-11T00:47:25.788Z,104.13
2023-02-11T00:47:57.710Z,106.07
2023-02-11T00:48:29.574Z,107.83
2023-02-11T00:49:01.447Z,109.33
2023-02-11T00:49:33.361Z,107.27
2023-02-11T00:50:05.625Z,105.90
2023-02-11T00:50:37.441Z,104.97
2023-02-11T00:51:09.311Z,108.77
2023-02-11T00:51:41.190Z,110.93
2023-02-11T00:52:13.036Z,109.53
2023-02-11T00:52:44.911Z,112.37
2023-02-11T00:53:16.716Z,107.37
2023-02-11T00:53:48.576Z,107.40
2023-02-11T00:54:20.448Z,107.50
2023-02-11T00:54:52.238Z,108.30
2023-02-11T00:55:24.029Z,107.60
2023-02-11T00:55:55.911Z,106.50
2023-02-11T00:56:27.712Z,107.30
2023-02-11T00:56:59.509Z,106.13
2023-02-11T00:57:31.350Z,101.37
2023-02-11T00:58:03.213Z,97.57
2023-02-11T00:58:35.353Z,99.27
2023-02-11T00:59:07.212Z,100.30
2023-02-11T00:59:39.091Z,97.00
2023-02-11T01:00:12.114Z,93.80
2023-02-11T01:00:43.971Z,92.03
2023-02-11T01:01:15.881Z,92.73
2023-02-11T01:01:47.779Z,91.67
2023-02-11T01:02:19.697Z,91.43
2023-02-11T01:02:51.484Z,94.33
2023-02-11T01:03:23.348Z,92.90
2023-02-11T01:03:55.134Z,92.93
2023-02-11T01:04:26.992Z,91.93
2023-02-11T01:05:00.208Z,93.00
2023-02-11T01:05:32.247Z,91.07
2023-02-11T01:06:04.889Z,90.03
2023-02-11T01:06:36.711Z,92.37
2023-02-11T01:07:08.657Z,91.73
2023-02-11T01:07:40.423Z,91.83
2023-02-11T01:08:12.360Z,94.40
2023-02-11T01:08:44.163Z,92.90
2023-02-11T01:09:15.961Z,91.90
2023-02-11T01:09:47.819Z,92.40
2023-02-11T01:10:19.704Z,92.33
2023-02-11T01:11:08.672Z,90.53
2023-02-11T01:11:40.522Z,89.13
2023-02-11T01:12:12.307Z,87.50
2023-02-11T01:12:44.149Z,89.33
2023-02-11T01:13:15.969Z,87.40
2023-02-11T01:13:48.363Z,87.87
2023-02-11T01:14:20.201Z,91.93
2023-02-11T01:14:52.147Z,90.60
2023-02-11T01:15:24.076Z,92.00
2023-02-11T01:15:56.088Z,93.50
2023-02-11T01:16:28.003Z,94.40
2023-02-11T01:16:59.841Z,96.73
2023-02-11T01:17:31.669Z,99.60
2023-02-11T01:18:05.180Z,100.50
2023-02-11T01:18:37.141Z,95.70
2023-02-11T01:19:08.954Z,99.63
2023-02-11T01:19:40.813Z,100.77
2023-02-11T01:20:16.740Z,99.50
2023-02-11T01:20:48.546Z,101.70
2023-02-11T01:21:20.461Z,104.10
2023-02-11T01:21:52.260Z,101.70
2023-02-11T01:22:24.124Z,100.53
2023-02-11T01:22:56.014Z,96.60
2023-02-11T01:23:27.842Z,90.47
2023-02-11T01:23:59.676Z,90.13
2023-02-11T01:24:31.480Z,94.07
2023-02-11T01:25:03.671Z,94.40
2023-02-11T01:25:35.510Z,91.43
2023-02-11T01:26:07.374Z,91.43
2023-02-11T01:26:39.275Z,90.13
2023-02-11T01:27:11.075Z,90.60
2023-02-11T01:27:42.954Z,89.73
2023-02-11T01:28:25.074Z,86.57
2023-02-11T01:28:56.920Z,86.70
2023-02-11T01:29:28.730Z,89.83
2023-02-11T01:30:00.544Z,95.17
2023-02-11T01:30:32.397Z,99.20
2023-02-11T01:31:04.541Z,105.30
2023-02-11T01:31:36.543Z,105.10
2023-02-11T01:32:08.439Z,108.93
2023-02-11T01:32:40.402Z,110.07
2023-02-11T01:33:12.236Z,110.40
2023-02-11T01:33:44.086Z,115.10
2023-02-11T01:34:16.170Z,115.77
2023-02-11T01:34:47.936Z,114.90
2023-02-11T01:35:20.846Z,100.37
2023-02-11T01:35:53.002Z,85.83
2023-02-11T01:36:25.191Z,84.83
2023-02-11T01:36:58.749Z,95.83
2023-02-11T01:37:32.610Z,102.73
2023-02-11T01:38:04.441Z,100.17
2023-02-11T01:38:36.331Z,99.73
2023-02-11T01:39:11.396Z,100.77
2023-02-11T01:39:43.226Z,103.30
2023-02-11T01:40:16.560Z,111.33
2023-02-11T01:41:01.819Z,114.07
2023-02-11T01:41:33.746Z,117.23
2023-02-11T01:42:05.876Z,122.37
2023-02-11T01:42:37.796Z,120.67
2023-02-11T01:43:10.859Z,135.90
2023-02-11T01:43:47.704Z,144.20
2023-02-11T01:44:23.101Z,144.70
2023-02-11T01:44:55.938Z,142.33
2023-02-11T01:45:54.071Z,144.97
2023-02-11T01:46:38.315Z,148.80
2023-02-11T01:47:10.334Z,154.73
2023-02-11T01:47:42.134Z,152.10
2023-02-11T01:48:16.360Z,152.70
2023-02-11T01:48:53.361Z,153.83
2023-02-11T01:49:31.094Z,150.40
2023-02-11T01:50:04.078Z,149.80
2023-02-11T01:50:36.135Z,148.17
2023-02-11T01:51:21.907Z,152.03
2023-02-11T01:52:04.631Z,152.20
2023-02-11T01:52:37.647Z,152.30
2023-02-11T01:53:27.981Z,152.80
2023-02-11T01:54:35.355Z,152.63
2023-02-11T01:55:29.140Z,151.40
2023-02-11T01:56:19.276Z,154.50
2023-02-11T01:57:10.354Z,153.57
2023-02-11T01:57:43.680Z,149.03
2023-02-11T01:58:15.478Z,147.43
2023-02-11T01:58:47.267Z,150.90
2023-02-11T01:59:22.796Z,151.70
2023-02-11T02:00:12.354Z,150.97
2023-02-11T02:00:44.162Z,150.70
2023-02-11T02:01:17.663Z,149.97
2023-02-11T02:01:53.504Z,150.33
2023-02-11T02:02:43.204Z,150.53
2023-02-11T02:03:20.215Z,147.07
2023-02-11T02:03:52.678Z,147.17
2023-02-11T02:04:27.524Z,147.13
2023-02-11T02:05:03.759Z,148.57
2023-02-11T02:05:49.584Z,147.33
2023-02-11T02:06:33.851Z,149.70
2023-02-11T02:07:14.503Z,152.50
2023-02-11T02:08:12.993Z,146.67
2023-02-11T02:08:50.319Z,147.07
2023-02-11T02:09:26.922Z,149.57
2023-02-11T02:10:01.248Z,145.27
2023-02-11T02:10:33.133Z,144.10
2023-02-11T02:11:05.012Z,147.73
2023-02-11T02:11:36.813Z,147.90
2023-02-11T02:12:08.652Z,149.40
2023-02-11T02:12:40.437Z,148.10
2023-02-11T02:13:12.464Z,149.57
2023-02-11T02:13:44.331Z,150.27
2023-02-11T02:14:16.137Z,148.03
2023-02-11T02:14:47.980Z,147.33
2023-02-11T02:15:25.396Z,153.17
2023-02-11T02:16:07.881Z,150.43
2023-02-11T02:16:41.462Z,148.23
2023-02-11T02:17:34.765Z,150.43
2023-02-11T02:18:49.047Z,148.37
2023-02-11T02:19:51.361Z,147.07
2023-02-11T02:21:08.284Z,147.23
2023-02-11T02:21:45.883Z,141.70
2023-02-11T02:22:25.018Z,139.17
2023-02-11T02:24:20.325Z,140.67
2023-02-11T02:25:06.890Z,137.53
2023-02-11T02:26:10.843Z,132.40
2023-02-11T02:26:54.613Z,136.20
2023-02-11T02:27:40.634Z,147.10
2023-02-11T02:28:45.050Z,145.13
2023-02-11T02:29:22.826Z,148.60
2023-02-11T02:30:00.108Z,146.97
2023-02-11T02:30:50.145Z,144.20
2023-02-11T02:31:52.687Z,146.90
2023-02-11T02:32:42.689Z,150.70
2023-02-11T02:33:22.152Z,153.07
2023-02-11T02:34:29.693Z,148.40
2023-02-11T02:35:19.548Z,147.13
2023-02-11T02:36:02.771Z,144.07
2023-02-11T02:37:00.223Z,140.77
2023-02-11T02:37:48.935Z,131.10
2023-02-11T02:39:53.450Z,114.53
2023-02-11T02:40:37.232Z,117.10
2023-02-11T02:41:11.341Z,117.87
2023-02-11T02:41:43.171Z,112.43
2023-02-11T02:42:14.945Z,114.13
2023-02-11T02:42:46.972Z,115.43
2023-02-11T02:43:18.809Z,116.27
2023-02-11T02:43:51.028Z,119.07
2023-02-11T02:44:22.908Z,123.13
2023-02-11T02:44:54.732Z,122.37
2023-02-11T02:45:26.523Z,118.30
2023-02-11T02:46:11.200Z,116.27
2023-02-11T02:46:43.020Z,111.70
2023-02-11T02:47:14.922Z,114.10
2023-02-11T02:47:46.696Z,115.10
2023-02-11T02:48:32.193Z,114.60
2023-02-11T02:49:04.189Z,112.17
2023-02-11T02:49:36.009Z,111.90
2023-02-11T02:50:08.203Z,111.03
2023-02-11T02:50:39.984Z,113.47
2023-02-11T02:51:15.905Z,112.30
2023-02-11T02:52:24.799Z,111.57
2023-02-11T02:53:02.476Z,114.03
2023-02-11T02:54:07.576Z,115.50
2023-02-11T02:54:53.202Z,113.57
2023-02-11T02:55:35.668Z,115.07
2023-02-11T02:56:16.005Z,111.43
2023-02-11T02:57:04.007Z,113.50
2023-02-11T02:57:47.795Z,114.87
2023-02-11T02:58:33.173Z,113.43
2023-02-11T02:59:13.935Z,114.30
2023-02-11T03:00:29.925Z,114.77
2023-02-11T03:01:30.420Z,115.17
2023-02-11T03:02:25.258Z,116.23
2023-02-11T03:03:15.478Z,109.53
2023-02-11T03:03:59.320Z,103.70
2023-02-11T03:04:53.815Z,100.67
2023-02-11T03:05:46.946Z,102.27
2023-02-11T03:06:39.517Z,102.13
2023-02-11T03:07:37.571Z,104.10
2023-02-11T03:08:32.831Z,100.43
2023-02-11T03:09:15.222Z,97.10
2023-02-11T03:10:00.838Z,94.20
2023-02-11T03:10:34.682Z,94.67
2023-02-11T03:11:06.584Z,84.07
2023-02-11T03:11:38.479Z,80.93
2023-02-11T03:12:10.334Z,82.23
2023-02-11T03:12:42.410Z,84.40
2023-02-11T03:13:17.122Z,92.53
2023-02-11T03:13:49.012Z,94.53
2023-02-11T03:14:20.845Z,95.90
2023-02-11T03:14:52.767Z,99.07
2023-02-11T03:15:26.305Z,97.03
2023-02-11T03:15:58.266Z,100.33
2023-02-11T03:16:30.158Z,98.13
2023-02-11T03:17:03.135Z,96.30
2023-02-11T03:17:36.118Z,94.87
2023-02-11T03:18:09.345Z,94.73
2023-02-11T03:18:42.725Z,94.10
2023-02-11T03:19:31.124Z,91.67
2023-02-11T03:20:04.413Z,93.17
2023-02-11T03:20:37.143Z,90.03
2023-02-11T03:21:09.058Z,87.40
2023-02-11T03:21:41.555Z,82.90
2023-02-11T03:22:33.871Z,80.57
2023-02-11T03:23:13.561Z,75.40
2023-02-11T03:23:54.136Z,75.13
2023-02-11T03:24:31.094Z,72.73
2023-02-11T03:25:03.104Z,72.23
2023-02-11T03:25:37.449Z,71.03
2023-02-11T03:26:19.808Z,72.37
2023-02-11T03:26:55.445Z,73.37
2023-02-11T03:27:47.408Z,72.93
2023-02-11T03:28:28.154Z,73.67
2023-02-11T03:29:25.849Z,71.57
2023-02-11T03:29:57.510Z,72.23
2023-02-11T03:30:44.358Z,72.30
2023-02-11T03:31:41.334Z,75.10
2023-02-11T03:32:35.902Z,70.30
2023-02-11T03:33:14.283Z,68.20
2023-02-11T03:34:08.764Z,67.83
2023-02-11T03:34:48.409Z,66.80
2023-02-11T03:35:21.913Z,64.47
2023-02-11T03:36:15.407Z,65.27
2023-02-11T03:37:15.202Z,65.07
2023-02-11T03:37:54.596Z,66.67
2023-02-11T03:38:39.937Z,70.53
2023-02-11T03:39:14.474Z,70.47
2023-02-11T03:39:57.758Z,68.97
2023-02-11T03:40:32.130Z,68.00
2023-02-11T03:41:04.806Z,68.93
2023-02-11T03:41:36.655Z,69.73
2023-02-11T03:42:08.952Z,69.67
2023-02-11T03:42:47.079Z,68.53
2023-02-11T03:43:23.214Z,67.07
2023-02-11T03:43:56.674Z,67.60
2023-02-11T03:44:30.928Z,68.07
2023-02-11T03:45:21.758Z,68.77
2023-02-11T03:45:53.979Z,69.70
2023-02-11T03:46:33.845Z,69.10
2023-02-11T03:47:06.133Z,67.37
2023-02-11T03:47:39.238Z,69.70
2023-02-11T03:48:24.485Z,70.53
2023-02-11T03:48:58.899Z,67.27
2023-02-11T03:49:30.704Z,69.37
2023-02-11T03:50:04.452Z,70.33
2023-02-11T03:50:36.334Z,69.70
2023-02-11T03:51:09.416Z,69.23
2023-02-11T03:51:41.278Z,69.90
2023-02-11T03:52:13.148Z,70.93
2023-02-11T03:52:44.898Z,72.90
2023-02-11T03:53:16.664Z,73.20
2023-02-11T03:53:48.455Z,72.80
2023-02-11T03:54:24.139Z,69.83
2023-02-11T03:54:56.652Z,68.77
2023-02-11T03:55:28.634Z,69.70
2023-02-11T03:56:01.339Z,67.17
2023-02-11T03:56:35.724Z,67.93
2023-02-11T03:57:07.681Z,68.47
2023-02-11T03:57:39.567Z,68.83
2023-02-11T03:58:11.424Z,67.63
2023-02-11T03:58:45.507Z,67.87
2023-02-11T03:59:17.413Z,66.80
2023-02-11T03:59:58.867Z,67.50
2023-02-11T04:00:39.689Z,68.23
2023-02-11T04:01:11.568Z,63.63
2023-02-11T04:01:43.402Z,67.43
2023-02-11T04:02:15.274Z,69.50
2023-02-11T04:02:47.186Z,67.57
2023-02-11T04:03:19.234Z,65.53
2023-02-11T04:03:51.090Z,63.10
2023-02-11T04:04:22.892Z,62.77
2023-02-11T04:04:54.981Z,61.87
2023-02-11T04:05:26.765Z,60.73
2023-02-11T04:05:58.547Z,60.60
2023-02-11T04:06:30.342Z,62.53
2023-02-11T04:07:02.137Z,61.37
2023-02-11T04:07:33.973Z,59.90
2023-02-11T04:08:05.960Z,59.50
2023-02-11T04:08:37.808Z,60.07
2023-02-11T04:09:10.125Z,59.23
2023-02-11T04:09:41.972Z,58.23
2023-02-11T04:10:13.812Z,59.00
2023-02-11T04:10:45.629Z,57.67
2023-02-11T04:11:17.475Z,57.63
2023-02-11T04:11:49.354Z,58.27
2023-02-11T04:12:21.267Z,59.47
2023-02-11T04:12:53.071Z,59.27
2023-02-11T04:13:24.964Z,57.17
2023-02-11T04:13:56.789Z,58.27
2023-02-11T04:14:29.176Z,60.50
2023-02-11T04:15:00.950Z,59.27
2023-02-11T04:15:32.963Z,58.03
2023-02-11T04:16:04.956Z,57.83
2023-02-11T04:16:36.874Z,58.37
2023-02-11T04:17:08.754Z,56.03
2023-02-11T04:17:40.565Z,54.80
2023-02-11T04:18:12.388Z,55.13
2023-02-11T04:18:44.193Z,54.60
2023-02-11T04:19:16.041Z,54.10
2023-02-11T04:19:47.877Z,54.30
2023-02-11T04:20:19.819Z,55.77
2023-02-11T04:20:51.653Z,55.03
2023-02-11T04:21:23.455Z,55.40
2023-02-11T04:21:55.302Z,57.23
2023-02-11T04:22:27.181Z,56.43
2023-02-11T04:22:58.988Z,57.53
2023-02-11T04:23:30.810Z,58.23
2023-02-11T04:24:02.685Z,57.10
2023-02-11T04:24:34.763Z,57.57
2023-02-11T04:25:06.946Z,59.60
2023-02-11T04:25:38.796Z,61.57
2023-02-11T04:26:10.645Z,61.13
2023-02-11T04:26:42.782Z,60.77
2023-02-11T04:27:14.644Z,62.03
2023-02-11T04:27:46.446Z,65.40
2023-02-11T04:28:18.275Z,62.93
2023-02-11T04:28:50.078Z,63.20
2023-02-11T04:29:21.995Z,61.33
2023-02-11T04:29:54.363Z,60.50
2023-02-11T04:30:26.220Z,60.60
2023-02-11T04:30:58.093Z,62.07
2023-02-11T04:31:29.953Z,63.47
2023-02-11T04:32:01.831Z,66.30
2023-02-11T04:32:33.630Z,64.53
2023-02-11T04:33:05.455Z,69.20
2023-02-11T04:33:37.228Z,72.70
2023-02-11T04:34:09.027Z,76.50
2023-02-11T04:34:40.867Z,75.27
2023-02-11T04:35:12.690Z,74.63
2023-02-11T04:35:44.479Z,73.73
2023-02-11T04:36:16.263Z,78.10
2023-02-11T04:36:48.088Z,82.00
2023-02-11T04:37:19.986Z,85.50
2023-02-11T04:37:51.798Z,84.40
2023-02-11T04:38:26.576Z,79.60
2023-02-11T04:38:58.412Z,76.40
2023-02-11T04:39:30.188Z,75.10
2023-02-11T04:40:02.052Z,76.07
2023-02-11T04:40:33.881Z,78.03
2023-02-11T04:41:05.753Z,79.17
2023-02-11T04:41:37.537Z,79.20
2023-02-11T04:42:09.311Z,76.70
2023-02-11T04:42:41.080Z,75.23
2023-02-11T04:43:12.906Z,78.27
2023-02-11T04:43:44.686Z,73.77
2023-02-11T04:44:16.667Z,74.80
2023-02-11T04:44:48.489Z,75.87
2023-02-11T04:45:20.390Z,69.47
2023-02-11T04:45:52.554Z,66.57
2023-02-11T04:46:24.707Z,63.23
2023-02-11T04:46:56.525Z,64.03
2023-02-11T04:47:28.369Z,63.73
2023-02-11T04:48:01.445Z,64.43
2023-02-11T04:48:34.920Z,66.03
2023-02-11T04:49:06.728Z,66.33
2023-02-11T04:49:38.502Z,66.63
2023-02-11T04:50:10.381Z,67.37
2023-02-11T04:50:42.217Z,67.83
2023-02-11T04:51:14.043Z,67.20
2023-02-11T04:51:48.908Z,67.73
2023-02-11T04:52:21.140Z,70.70
2023-02-11T04:52:52.954Z,69.63
2023-02-11T04:53:24.751Z,71.80
2023-02-11T04:53:56.571Z,72.43
2023-02-11T04:54:28.414Z,73.40
2023-02-11T04:55:00.851Z,73.33
2023-02-11T04:55:32.632Z,74.27
2023-02-11T04:56:04.675Z,76.63
2023-02-11T04:56:36.583Z,76.20
2023-02-11T04:57:08.584Z,74.00
2023-02-11T04:57:40.492Z,74.97
2023-02-11T04:58:12.317Z,72.07
2023-02-11T04:58:44.192Z,73.97
2023-02-11T04:59:16.048Z,73.03
2023-02-11T04:59:48.966Z,72.70
2023-02-11T05:00:21.033Z,75.20
2023-02-11T05:00:52.873Z,72.50
2023-02-11T05:01:24.777Z,71.50
2023-02-11T05:01:56.974Z,72.23
2023-02-11T05:02:28.762Z,71.73
2023-02-11T05:03:00.548Z,68.47
2023-02-11T05:03:32.360Z,66.67
2023-02-11T05:04:04.409Z,65.90
2023-02-11T05:04:36.218Z,67.67
2023-02-11T05:05:08.711Z,66.30
2023-02-11T05:05:43.293Z,66.37
2023-02-11T05:06:15.122Z,65.93
2023-02-11T05:06:46.956Z,64.77
2023-02-11T05:07:18.790Z,64.83
2023-02-11T05:07:50.636Z,63.87
2023-02-11T05:08:22.466Z,65.70
2023-02-11T05:08:54.305Z,65.63
2023-02-11T05:09:26.075Z,66.47
2023-02-11T05:09:57.876Z,67.87
2023-02-11T05:10:29.733Z,68.90
2023-02-11T05:11:02.369Z,66.83
2023-02-11T05:11:34.154Z,69.90
2023-02-11T05:12:06.166Z,69.17
2023-02-11T05:12:37.962Z,65.57
2023-02-11T05:13:09.736Z,65.50
2023-02-11T05:13:41.556Z,64.87
2023-02-11T05:14:13.343Z,62.83
2023-02-11T05:14:45.097Z,60.67
2023-02-11T05:15:17.136Z,63.77
2023-02-11T05:15:49.200Z,65.50
2023-02-11T05:16:21.339Z,63.80
2023-02-11T05:16:53.310Z,63.37
2023-02-11T05:17:25.159Z,63.57
2023-02-11T05:17:56.969Z,62.17
2023-02-11T05:18:28.783Z,62.57
2023-02-11T05:19:00.768Z,60.90
2023-02-11T05:19:32.713Z,61.17
2023-02-11T05:20:04.842Z,60.37
2023-02-11T05:20:39.031Z,58.43
2023-02-11T05:21:12.663Z,59.30
2023-02-11T05:22:00.227Z,59.67
2023-02-11T05:22:33.748Z,60.13
2023-02-11T05:23:05.585Z,59.93
2023-02-11T05:23:37.513Z,60.60
2023-02-11T05:24:09.399Z,59.10
2023-02-11T05:24:41.259Z,57.07
2023-02-11T05:25:13.102Z,58.63
2023-02-11T05:25:44.916Z,55.83
2023-02-11T05:26:16.817Z,59.20
2023-02-11T05:26:48.679Z,59.63
2023-02-11T05:27:20.520Z,58.70
2023-02-11T05:27:52.323Z,58.67
2023-02-11T05:28:24.184Z,56.67
2023-02-11T05:28:56.485Z,59.50
2023-02-11T05:29:28.595Z,59.43
2023-02-11T05:30:00.410Z,59.73
2023-02-11T05:30:32.363Z,60.43
2023-02-11T05:31:04.415Z,61.80
2023-02-11T05:31:36.210Z,61.17
2023-02-11T05:32:09.159Z,60.13
2023-02-11T05:32:41.032Z,59.70
2023-02-11T05:33:12.823Z,60.30
2023-02-11T05:33:44.651Z,61.50
2023-02-11T05:34:16.565Z,61.90
2023-02-11T05:34:48.422Z,60.67
2023-02-11T05:35:20.274Z,61.50
2023-02-11T05:35:52.355Z,62.90
2023-02-11T05:36:24.276Z,62.70
2023-02-11T05:36:56.179Z,64.03
2023-02-11T05:37:28.225Z,63.90
2023-02-11T05:38:00.059Z,60.90
2023-02-11T05:38:31.892Z,59.80
2023-02-11T05:39:03.856Z,61.23
2023-02-11T05:39:36.060Z,61.97
2023-02-11T05:40:08.173Z,62.60
2023-02-11T05:40:40.005Z,61.67
2023-02-11T05:41:12.048Z,62.00
2023-02-11T05:41:43.878Z,63.53
2023-02-11T05:42:15.706Z,63.83
2023-02-11T05:42:47.492Z,64.07
2023-02-11T05:43:19.370Z,63.33
2023-02-11T05:43:51.246Z,62.50
2023-02-11T05:44:23.154Z,63.30
2023-02-11T05:44:54.925Z,64.60
2023-02-11T05:45:26.803Z,65.20
2023-02-11T05:45:58.746Z,64.53
2023-02-11T05:46:30.626Z,65.00
2023-02-11T05:47:02.479Z,65.43
2023-02-11T05:47:34.465Z,64.83
2023-02-11T05:48:06.293Z,63.97
2023-02-11T05:48:38.110Z,65.70
2023-02-11T05:49:09.987Z,65.90
2023-02-11T05:49:41.780Z,63.73
2023-02-11T05:50:13.599Z,65.67
2023-02-11T05:50:45.626Z,65.90
2023-02-11T05:51:17.450Z,65.67
2023-02-11T05:51:49.270Z,65.63
2023-02-11T05:52:21.896Z,64.80
2023-02-11T05:52:53.673Z,66.73
2023-02-11T05:53:25.845Z,65.03
2023-02-11T05:53:57.695Z,64.43
2023-02-11T05:54:29.570Z,62.43
2023-02-11T05:55:01.674Z,62.20
2023-02-11T05:55:33.727Z,64.57
2023-02-11T05:56:05.990Z,63.57
2023-02-11T05:56:37.772Z,63.57
2023-02-11T05:57:09.627Z,65.13
2023-02-11T05:57:41.460Z,66.37
2023-02-11T05:58:13.772Z,66.77
2023-02-11T05:58:45.552Z,66.00
2023-02-11T05:59:17.317Z,66.57
2023-02-11T05:59:49.111Z,67.73
2023-02-11T06:00:20.892Z,67.13
2023-02-11T06:00:52.768Z,67.47
2023-02-11T06:01:24.652Z,64.70
2023-02-11T06:01:56.460Z,64.83
2023-02-11T06:02:28.924Z,65.33
2023-02-11T06:03:00.891Z,64.93
2023-02-11T06:03:32.841Z,66.13
2023-02-11T06:04:04.690Z,66.57
2023-02-11T06:04:36.752Z,66.33
2023-02-11T06:05:08.901Z,67.87
2023-02-11T06:05:40.742Z,66.87
2023-02-11T06:06:12.749Z,68.07
2023-02-11T06:06:44.545Z,70.40
2023-02-11T06:07:17.721Z,70.30
2023-02-11T06:07:49.568Z,72.43
2023-02-11T06:08:21.393Z,66.83
2023-02-11T06:08:53.216Z,67.33
2023-02-11T06:09:25.001Z,69.63
2023-02-11T06:09:56.822Z,69.37
2023-02-11T06:10:28.727Z,70.83
2023-02-11T06:11:00.559Z,71.73
2023-02-11T06:11:32.386Z,70.17
2023-02-11T06:12:04.422Z,69.97
2023-02-11T06:12:36.956Z,70.20
2023-02-11T06:13:08.814Z,68.83
2023-02-11T06:13:40.615Z,65.73
2023-02-11T06:14:12.470Z,64.77
2023-02-11T06:14:44.443Z,67.17
2023-02-11T06:15:16.300Z,68.60
2023-02-11T06:15:56.685Z,67.93
2023-02-11T06:16:28.576Z,68.47
2023-02-11T06:17:00.795Z,67.70
2023-02-11T06:17:33.828Z,66.63
2023-02-11T06:18:05.725Z,67.93
2023-02-11T06:18:37.609Z,68.80
2023-02-11T06:19:09.468Z,68.50
2023-02-11T06:19:41.255Z,68.20
2023-02-11T06:20:13.572Z,71.00
2023-02-11T06:20:45.386Z,70.93
2023-02-11T06:21:17.232Z,69.53
2023-02-11T06:21:49.010Z,70.33
2023-02-11T06:22:20.832Z,72.13
2023-02-11T06:22:52.642Z,72.67
2023-02-11T06:23:24.492Z,72.10
2023-02-11T06:23:56.317Z,73.60
2023-02-11T06:24:50.963Z,76.23
2023-02-11T06:25:20.005Z,76.47
2023-02-11T06:25:52.811Z,78.40
2023-02-11T06:26:24.881Z,86.27
2023-02-11T06:26:56.662Z,93.07
2023-02-11T06:27:28.477Z,97.37
2023-02-11T06:28:00.348Z,101.87
2023-02-11T06:28:32.794Z,135.57
2023-02-11T06:29:04.608Z,137.90
2023-02-11T06:29:36.421Z,139.47
2023-02-11T06:30:08.970Z,151.70
2023-02-11T06:30:40.786Z,153.43
2023-02-11T06:31:12.883Z,154.33
2023-02-11T06:31:44.821Z,155.97
2023-02-11T06:32:36.872Z,149.60
2023-02-11T06:33:09.529Z,138.80
2023-02-11T06:33:41.368Z,135.33
2023-02-11T06:34:13.181Z,131.53
2023-02-11T06:34:45.651Z,129.83
2023-02-11T06:35:17.501Z,129.70
2023-02-11T06:35:49.643Z,129.50
2023-02-11T06:36:22.143Z,129.20
2023-02-11T06:36:53.982Z,131.10
2023-02-11T06:37:25.818Z,135.77
2023-02-11T06:37:57.606Z,135.30
2023-02-11T06:38:29.423Z,135.07
2023-02-11T06:39:01.262Z,133.03
2023-02-11T06:39:33.104Z,130.73
2023-02-11T06:40:05.234Z,159.20
2023-02-11T06:40:36.995Z,166.77
2023-02-11T06:41:12.529Z,138.33
2023-02-11T06:41:44.375Z,137.33
2023-02-11T06:42:16.217Z,133.40
2023-02-11T06:42:48.468Z,126.70
2023-02-11T06:43:20.241Z,122.13
2023-02-11T06:43:52.798Z,123.27
2023-02-11T06:44:24.748Z,125.17
2023-02-11T06:44:56.577Z,126.37
2023-02-11T06:45:28.450Z,126.43
2023-02-11T06:46:00.307Z,128.50
2023-02-11T06:46:32.263Z,127.20
2023-02-11T06:47:04.166Z,132.73
2023-02-11T06:47:35.993Z,136.97
2023-02-11T06:48:08.624Z,136.33
2023-02-11T06:48:41.657Z,133.63
2023-02-11T06:49:14.954Z,134.50
2023-02-11T06:49:46.756Z,135.33
2023-02-11T06:50:18.639Z,134.40
2023-02-11T06:50:50.485Z,136.40
2023-02-11T06:51:22.355Z,137.83
2023-02-11T06:51:54.703Z,135.80
2023-02-11T06:52:26.668Z,140.03
2023-02-11T06:53:00.039Z,138.43
2023-02-11T06:53:38.798Z,135.40
2023-02-11T06:54:11.639Z,136.40
2023-02-11T06:54:43.508Z,134.90
2023-02-11T06:55:15.301Z,134.60
2023-02-11T06:55:47.114Z,138.00
2023-02-11T06:56:20.321Z,139.13
2023-02-11T06:56:52.249Z,141.47
2023-02-11T06:57:24.101Z,135.60
2023-02-11T06:57:55.868Z,131.87
2023-02-11T06:58:27.680Z,128.13
2023-02-11T06:58:59.706Z,129.30
2023-02-11T06:59:31.451Z,132.70
2023-02-11T07:00:04.949Z,131.53
2023-02-11T07:00:37.542Z,129.20
2023-02-11T07:01:11.021Z,132.80
2023-02-11T07:01:42.946Z,128.87
2023-02-11T07:02:14.852Z,132.97
2023-02-11T07:02:46.801Z,133.53
2023-02-11T07:03:18.773Z,132.77
2023-02-11T07:03:50.735Z,134.20
2023-02-11T07:04:22.956Z,133.07
2023-02-11T07:04:54.756Z,139.33
2023-02-11T07:05:26.658Z,145.87
2023-02-11T07:05:58.456Z,148.27
2023-02-11T07:06:30.302Z,152.07
2023-02-11T07:07:02.150Z,145.60
2023-02-11T07:07:34.350Z,146.03
2023-02-11T07:08:06.385Z,139.03
2023-02-11T07:08:38.598Z,132.80
2023-02-11T07:09:10.526Z,131.70
2023-02-11T07:09:42.392Z,131.87
2023-02-11T07:10:14.223Z,135.87
2023-02-11T07:10:46.117Z,135.97
2023-02-11T07:11:21.055Z,130.37
2023-02-11T07:11:52.815Z,129.03
2023-02-11T07:12:24.604Z,133.23
2023-02-11T07:12:58.720Z,132.20
2023-02-11T07:13:30.645Z,132.20
2023-02-11T07:14:04.379Z,127.23
2023-02-11T07:14:36.198Z,130.07
2023-02-11T07:15:08.424Z,131.03
2023-02-11T07:15:40.253Z,133.37
2023-02-11T07:16:15.980Z,133.77
2023-02-11T07:16:47.785Z,135.30
2023-02-11T07:17:19.556Z,135.67
2023-02-11T07:17:51.346Z,132.43
2023-02-11T07:18:23.089Z,132.07
2023-02-11T07:18:54.965Z,134.70
2023-02-11T07:19:26.812Z,134.20
2023-02-11T07:19:58.657Z,134.17